»·PEaware :: ASA2403 KRNO-KPDX

ASA2403 :: KRNO-KPDX

FLIGHT INFORMATION

Flight Status: Arrived
Operator:
Alaska Airlines
More flights by this operator :: More flights under this callsign
Pilot: Anonymous 15267 (15267)
Aircraft: DEHAVILLAND DASH 8 400
(DH8D)
More flights by this aircraft type
Origin: KRNO Reno/Tahoe Intl
United States
Destination: KPDX Portland Intl
United States
More flights between these airports :: More routes between these airports
Route: FMG8 FMG J92 LMT MOXEE PORTL TMBRS2
File this flight plan on PilotEdge
Remarks:
Altitude:
(Current/Filed)
24,000ft
Speed:
(Current/Filed)
300kts
Departed: 10-Jan-19 03:51 PM
Arrived: 10-Jan-19 05:25 PM
Distance/Time
Traveled:
386nm/1:34
Distance/Time
To Go:
Arrived

Flight Plot

Page will automatically refresh every two minutes.


Map Options




Map Legend


Flown Route
Filed Route
Departure Airport
Arrival Airport
Navaid (VOR, NDB)
Fix

Horizontal Profiles

Position Reports

Time Latitude Longitude Heading Altitude Ground
Speed
10-Jan-19 15:15 39.503179 -119.773049 180 4422ft 0kts
10-Jan-19 15:16 39.503179 -119.773049 180 4422ft 0kts
10-Jan-19 15:17 39.503179 -119.773049 180 4422ft 0kts
10-Jan-19 15:19 39.503179 -119.773049 180 4422ft 0kts
10-Jan-19 15:19 39.503179 -119.773049 180 4422ft 0kts
10-Jan-19 15:20 39.503179 -119.773049 180 4422ft 0kts
10-Jan-19 15:21 39.503179 -119.773049 180 4422ft 0kts
10-Jan-19 15:22 39.503179 -119.773049 180 4422ft 0kts
10-Jan-19 15:23 39.503179 -119.773049 180 4422ft 0kts
10-Jan-19 15:24 39.503179 -119.773049 180 4422ft 0kts
10-Jan-19 15:25 39.503179 -119.773049 180 4422ft 0kts
10-Jan-19 15:26 39.503179 -119.773049 180 4422ft 0kts
10-Jan-19 15:27 39.503179 -119.773049 180 4422ft 0kts
10-Jan-19 15:28 39.503179 -119.773049 180 4422ft 0kts
10-Jan-19 15:29 39.503179 -119.773049 180 4422ft 0kts
10-Jan-19 15:30 39.503179 -119.773049 180 4422ft 0kts
10-Jan-19 15:31 39.503179 -119.773049 180 4422ft 0kts
10-Jan-19 15:32 39.503179 -119.773049 180 4422ft 0kts
10-Jan-19 15:33 39.503459 -119.773079 164 4422ft 2kts
10-Jan-19 15:34 39.503717 -119.773513 90 4422ft 0kts
10-Jan-19 15:35 39.503717 -119.773513 90 4422ft 0kts
10-Jan-19 15:36 39.503717 -119.773513 90 4422ft 0kts
10-Jan-19 15:37 39.503717 -119.773513 90 4422ft 0kts
10-Jan-19 15:38 39.503717 -119.773513 90 4422ft 0kts
10-Jan-19 15:39 39.503717 -119.773513 90 4422ft 0kts
10-Jan-19 15:40 39.503717 -119.773256 89 4422ft 0kts
10-Jan-19 15:41 39.503731 -119.772390 87 4422ft 0kts
10-Jan-19 15:42 39.504133 -119.771492 2 4422ft 5kts
10-Jan-19 15:43 39.506807 -119.771494 0 4422ft 15kts
10-Jan-19 15:44 39.510904 -119.771491 0 4422ft 6kts
10-Jan-19 15:45 39.513092 -119.771483 0 4422ft 11kts
10-Jan-19 15:46 39.513769 -119.770518 93 4422ft 0kts
10-Jan-19 15:47 39.513769 -119.770518 93 4422ft 0kts
10-Jan-19 15:48 39.513769 -119.770518 93 4422ft 0kts
10-Jan-19 15:49 39.513163 -119.769206 173 4422ft 15kts
10-Jan-19 15:50 39.481019 -119.768954 179 5427ft 147kts
10-Jan-19 15:51 39.436363 -119.770045 181 7861ft 165kts
10-Jan-19 15:52 39.403993 -119.729303 77 9556ft 226kts
10-Jan-19 15:53 39.457604 -119.687057 16 11735ft 248kts
10-Jan-19 15:54 39.524785 -119.660414 16 13747ft 254kts
10-Jan-19 15:55 39.572621 -119.591000 30 15404ft 262kts
10-Jan-19 15:56 39.633157 -119.614416 312 16933ft 248kts
10-Jan-19 15:57 39.688472 -119.669392 322 18278ft 253kts
10-Jan-19 15:58 39.745932 -119.721544 323 19228ft 264kts
10-Jan-19 15:59 39.807616 -119.777713 322 20084ft 273kts
10-Jan-19 16:00 39.870168 -119.834691 323 20915ft 276kts
10-Jan-19 16:01 39.933410 -119.892452 323 21668ft 279kts
10-Jan-19 16:02 39.997169 -119.950817 323 22445ft 277kts
10-Jan-19 16:03 40.057485 -120.006094 323 23778ft 258kts
10-Jan-19 16:04 40.117500 -120.061341 323 24187ft 274kts
10-Jan-19 16:05 40.181990 -120.120731 323 24202ft 292kts
10-Jan-19 16:06 40.249749 -120.183178 323 24204ft 304kts
10-Jan-19 16:07 40.319104 -120.247221 323 24200ft 307kts
10-Jan-19 16:08 40.387577 -120.310612 323 24201ft 309kts
10-Jan-19 16:09 40.460786 -120.368891 328 24199ft 304kts
10-Jan-19 16:10 40.532994 -120.424412 327 24200ft 297kts
10-Jan-19 16:11 40.603709 -120.479609 327 24199ft 293kts
10-Jan-19 16:12 40.673358 -120.534232 327 24199ft 291kts
10-Jan-19 16:13 40.742979 -120.588981 327 24198ft 295kts
10-Jan-19 16:14 40.814016 -120.644964 327 24195ft 300kts
10-Jan-19 16:15 40.886061 -120.701876 327 24192ft 303kts
10-Jan-19 16:16 40.958404 -120.759150 326 24189ft 304kts
10-Jan-19 16:17 41.031009 -120.816839 326 24186ft 305kts
10-Jan-19 16:18 41.102454 -120.873690 326 24185ft 306kts
10-Jan-19 16:19 41.175346 -120.931860 326 24183ft 307kts
10-Jan-19 16:20 41.248553 -120.990469 326 24182ft 307kts
10-Jan-19 16:21 41.321614 -121.049085 326 24181ft 307kts
10-Jan-19 16:22 41.394655 -121.107888 326 24179ft 308kts
10-Jan-19 16:23 41.467879 -121.166909 326 24178ft 308kts
10-Jan-19 16:24 41.541137 -121.226148 326 24178ft 308kts
10-Jan-19 16:25 41.614524 -121.285667 326 24176ft 309kts
10-Jan-19 16:26 41.688128 -121.345538 326 24174ft 309kts
10-Jan-19 16:27 41.761549 -121.405368 326 24171ft 310kts
10-Jan-19 16:28 41.833743 -121.464413 325 24167ft 310kts
10-Jan-19 16:29 41.907093 -121.524538 325 24160ft 311kts
10-Jan-19 16:30 41.980975 -121.585284 325 24158ft 311kts
10-Jan-19 16:31 42.054642 -121.646012 325 24156ft 311kts
10-Jan-19 16:32 42.128442 -121.707057 325 24156ft 311kts
10-Jan-19 16:33 42.207463 -121.754773 337 24156ft 315kts
10-Jan-19 16:34 42.289687 -121.794957 336 24154ft 315kts
10-Jan-19 16:35 42.371885 -121.836012 336 24150ft 315kts
10-Jan-19 16:36 42.454086 -121.877183 336 24150ft 315kts
10-Jan-19 16:37 42.536123 -121.918414 336 24147ft 315kts
10-Jan-19 16:38 42.616579 -121.958926 336 24131ft 315kts
10-Jan-19 16:39 42.699083 -122.000587 336 24125ft 315kts
10-Jan-19 16:40 42.781157 -122.042104 336 24120ft 316kts
10-Jan-19 16:41 42.863904 -122.084192 336 24117ft 317kts
10-Jan-19 16:42 42.946636 -122.126315 335 24115ft 318kts
10-Jan-19 16:43 43.029400 -122.168605 335 24113ft 318kts
10-Jan-19 16:44 43.112188 -122.211018 335 24111ft 319kts
10-Jan-19 16:45 43.195336 -122.253742 335 24111ft 319kts
10-Jan-19 16:46 43.277930 -122.296288 335 24118ft 319kts
10-Jan-19 16:47 43.360999 -122.339203 335 24118ft 318kts
10-Jan-19 16:48 43.442148 -122.381319 335 24117ft 318kts
10-Jan-19 16:49 43.524991 -122.424360 335 24117ft 318kts
10-Jan-19 16:50 43.608047 -122.467690 335 24117ft 318kts
10-Jan-19 16:51 43.690547 -122.510804 335 24117ft 318kts
10-Jan-19 16:52 43.773516 -122.554297 335 24118ft 318kts
10-Jan-19 16:53 43.856568 -122.598013 335 24118ft 318kts
10-Jan-19 16:54 43.939306 -122.641638 335 24119ft 318kts
10-Jan-19 16:55 44.021810 -122.685295 335 24119ft 319kts
10-Jan-19 16:56 44.105444 -122.729668 335 24118ft 319kts
10-Jan-19 16:57 44.192739 -122.749744 0 24124ft 330kts
10-Jan-19 16:58 44.282629 -122.739767 359 24125ft 330kts
10-Jan-19 16:59 44.374706 -122.731053 0 22917ft 345kts
10-Jan-19 17:00 44.470296 -122.721723 1 20800ft 342kts
10-Jan-19 17:01 44.560876 -122.712126 0 20264ft 319kts
10-Jan-19 17:02 44.648693 -122.703838 0 19693ft 320kts
10-Jan-19 17:03 44.739775 -122.694759 1 18346ft 342kts
10-Jan-19 17:04 44.838571 -122.684817 1 16436ft 362kts
10-Jan-19 17:05 44.939392 -122.674545 2 14490ft 359kts
10-Jan-19 17:06 45.035177 -122.664767 2 12280ft 324kts
10-Jan-19 17:08 45.118843 -122.656508 1 10215ft 310kts
10-Jan-19 17:09 45.204528 -122.647884 2 8304ft 308kts
10-Jan-19 17:10 45.281014 -122.659306 335 7535ft 281kts
10-Jan-19 17:11 45.353881 -122.700085 334 7019ft 277kts
10-Jan-19 17:12 45.421804 -122.737402 335 5661ft 238kts
10-Jan-19 17:13 45.484231 -122.772186 336 5002ft 238kts
10-Jan-19 17:14 45.545367 -122.805567 335 4985ft 234kts
10-Jan-19 17:15 45.593810 -122.861574 299 4985ft 226kts
10-Jan-19 17:16 45.627987 -122.937755 297 4982ft 228kts
10-Jan-19 17:17 45.681567 -122.986841 0 4453ft 242kts
10-Jan-19 17:18 45.712636 -122.919440 96 3784ft 220kts
10-Jan-19 17:19 45.692745 -122.846120 119 3788ft 206kts
10-Jan-19 17:20 45.665746 -122.773724 122 2663ft 188kts
10-Jan-19 17:21 45.643099 -122.719787 120 1823ft 133kts
10-Jan-19 17:22 45.625185 -122.674129 120 1198ft 125kts
10-Jan-19 17:23 45.608767 -122.631142 120 607ft 121kts
10-Jan-19 17:23 45.595272 -122.596838 119 90ft 114kts
10-Jan-19 17:24 45.587286 -122.576467 131 37ft 22kts
10-Jan-19 17:26 45.586594 -122.577796 300 37ft 20kts
10-Jan-19 17:27 45.588556 -122.582827 300 37ft 0kts
10-Jan-19 17:28 45.589556 -122.586288 263 37ft 12kts
10-Jan-19 17:29 45.590777 -122.590679 297 37ft 12kts
10-Jan-19 17:29 45.592245 -122.594470 299 37ft 13kts
10-Jan-19 17:30 45.592090 -122.598464 207 37ft 11kts
10-Jan-19 17:31 45.589205 -122.600829 119 37ft 14kts
10-Jan-19 17:32 45.587180 -122.595592 117 37ft 15kts
10-Jan-19 17:33 45.587054 -122.593750 32 37ft 0kts

Navigation Log

Ident Type
Flight plan parsing failed, navigation log unavailable